createdAt,value
2019-01-05T00:01:30.738Z,89.77
2019-01-05T00:04:22.885Z,89.87
2019-01-05T00:07:34.703Z,89.67
2019-01-05T00:10:29.748Z,89.77
2019-01-05T00:13:27.643Z,89.83
2019-01-05T00:16:19.168Z,89.76
2019-01-05T00:19:12.933Z,89.76
2019-01-05T00:22:23.613Z,89.68
2019-01-05T00:25:16.160Z,89.67
2019-01-05T00:28:07.236Z,89.81
2019-01-05T00:31:13.245Z,89.81
2019-01-05T00:34:11.318Z,90.01
2019-01-05T00:37:20.986Z,89.85
2019-01-05T00:40:30.194Z,89.90
2019-01-05T00:43:20.894Z,89.98
2019-01-05T00:46:20.353Z,90.01
2019-01-05T00:49:18.748Z,90.08
2019-01-05T00:52:06.866Z,90.25
2019-01-05T00:54:59.426Z,90.23
2019-01-05T00:58:12.419Z,90.32
2019-01-05T01:01:10.830Z,90.18
2019-01-05T01:04:02.038Z,90.40
2019-01-05T01:07:09.437Z,90.26
2019-01-05T01:10:13.761Z,90.28
2019-01-05T01:13:05.888Z,90.33
2019-01-05T01:16:00.286Z,90.40
2019-01-05T01:18:52.215Z,90.54
2019-01-05T01:21:46.073Z,90.45
2019-01-05T01:24:37.457Z,90.46
2019-01-05T01:27:32.092Z,90.53
2019-01-05T01:30:29.980Z,90.75
2019-01-05T01:33:26.462Z,90.89
2019-01-05T01:36:26.122Z,90.91
2019-01-05T01:39:32.467Z,90.92
2019-01-05T01:42:24.770Z,91.08
2019-01-05T01:45:20.349Z,91.04
2019-01-05T01:48:12.731Z,91.04
2019-01-05T01:51:12.304Z,91.14
2019-01-05T01:54:04.575Z,91.30
2019-01-05T01:57:05.924Z,91.37
2019-01-05T02:00:38.560Z,91.50
2019-01-05T02:03:31.876Z,91.50
2019-01-05T02:06:23.867Z,91.51
2019-01-05T02:09:17.958Z,91.63
2019-01-05T02:12:10.010Z,91.59
2019-01-05T02:15:17.130Z,91.55
2019-01-05T02:19:05.960Z,91.68
2019-01-05T02:22:56.232Z,91.58
2019-01-05T02:27:07.022Z,91.50
2019-01-05T02:31:19.943Z,91.60
2019-01-05T02:35:10.222Z,91.57
2019-01-05T02:39:02.846Z,91.58
2019-01-05T02:42:48.216Z,91.44
2019-01-05T02:46:18.851Z,91.50
2019-01-05T02:50:13.836Z,91.56
2019-01-05T02:54:15.750Z,91.55
2019-01-05T02:58:21.607Z,91.65
2019-01-05T03:02:31.066Z,91.75
2019-01-05T03:06:23.151Z,91.56
2019-01-05T03:10:11.098Z,91.80
2019-01-05T03:14:02.556Z,91.70
2019-01-05T03:17:54.295Z,91.57
2019-01-05T03:22:19.884Z,91.53
2019-01-05T03:25:46.374Z,91.51
2019-01-05T03:29:55.316Z,91.67
2019-01-05T03:33:17.392Z,91.83
2019-01-05T03:37:42.020Z,91.74
2019-01-05T03:41:50.128Z,91.89
2019-01-05T03:45:37.585Z,91.75
2019-01-05T03:49:43.605Z,91.86
2019-01-05T03:53:05.041Z,92.08
2019-01-05T03:57:01.924Z,92.17
2019-01-05T04:01:03.978Z,92.15
2019-01-05T04:04:49.326Z,92.19
2019-01-05T04:08:39.312Z,92.30
2019-01-05T04:12:34.704Z,92.37
2019-01-05T04:16:07.902Z,92.29
2019-01-05T04:19:58.598Z,92.39
2019-01-05T04:24:09.724Z,92.45
2019-01-05T04:28:28.267Z,92.58
2019-01-05T04:32:18.515Z,92.79
2019-01-05T04:36:15.727Z,92.78
2019-01-05T04:40:16.247Z,92.86
2019-01-05T04:44:00.828Z,92.84
2019-01-05T04:48:13.277Z,92.98
2019-01-05T04:51:59.609Z,92.99
2019-01-05T04:55:51.311Z,93.03
2019-01-05T04:59:42.655Z,93.18
2019-01-05T05:03:52.307Z,93.09
2019-01-05T05:07:47.618Z,93.23
2019-01-05T05:12:02.447Z,93.07
2019-01-05T05:16:00.691Z,93.37
2019-01-05T05:19:47.538Z,92.98
2019-01-05T05:23:39.602Z,92.77
2019-01-05T05:27:53.667Z,92.68
2019-01-05T05:32:19.283Z,92.58
2019-01-05T05:36:13.367Z,92.56
2019-01-05T05:40:01.660Z,92.50
2019-01-05T05:44:08.108Z,92.76
2019-01-05T05:47:54.749Z,92.57
2019-01-05T05:52:06.065Z,92.37
2019-01-05T05:55:57.267Z,92.69
2019-01-05T05:59:48.695Z,92.09
2019-01-05T06:03:39.011Z,92.07
2019-01-05T06:07:44.761Z,92.14
2019-01-05T06:11:44.466Z,91.97
2019-01-05T06:16:05.988Z,91.75
2019-01-05T06:20:13.357Z,91.83
2019-01-05T06:23:55.528Z,91.83
2019-01-05T06:27:53.227Z,91.89
2019-01-05T06:31:47.718Z,91.86
2019-01-05T06:35:32.496Z,91.49
2019-01-05T06:39:33.314Z,91.49
2019-01-05T06:43:28.099Z,91.59
2019-01-05T06:47:17.285Z,91.74
2019-01-05T06:51:15.313Z,91.74
2019-01-05T06:55:20.095Z,91.77
2019-01-05T06:59:24.975Z,91.74
2019-01-05T07:03:18.414Z,91.84
2019-01-05T07:07:13.673Z,91.66
2019-01-05T07:11:34.374Z,91.69
2019-01-05T07:15:10.649Z,91.55
2019-01-05T07:19:23.896Z,91.65
2019-01-05T07:23:25.985Z,91.21
2019-01-05T07:27:47.556Z,91.20
2019-01-05T07:31:34.620Z,90.90
2019-01-05T07:35:50.530Z,90.83
2019-01-05T07:39:56.127Z,90.97
2019-01-05T07:43:41.736Z,90.93
2019-01-05T07:48:11.195Z,90.92
2019-01-05T07:51:56.227Z,91.09
2019-01-05T07:55:46.769Z,91.17
2019-01-05T07:59:51.041Z,91.00
2019-01-05T08:03:42.931Z,91.03
2019-01-05T08:07:44.545Z,90.59
2019-01-05T08:11:51.219Z,90.57
2019-01-05T08:15:54.871Z,90.24
2019-01-05T08:19:43.811Z,90.44
2019-01-05T08:23:39.598Z,90.15
2019-01-05T08:28:13.352Z,90.16
2019-01-05T08:32:03.311Z,90.27
2019-01-05T08:36:18.747Z,90.75
2019-01-05T08:40:09.708Z,90.19
2019-01-05T08:43:59.541Z,89.66
2019-01-05T08:47:57.841Z,89.85
2019-01-05T08:51:33.942Z,89.32
2019-01-05T08:55:45.709Z,89.13
2019-01-05T08:59:45.986Z,89.04
2019-01-05T09:03:50.199Z,89.92
2019-01-05T09:07:39.529Z,87.20
2019-01-05T09:11:24.617Z,86.80
2019-01-05T09:15:21.927Z,87.01
2019-01-05T09:19:13.795Z,87.64
2019-01-05T09:23:26.947Z,88.75
2019-01-05T09:27:36.707Z,88.40
2019-01-05T09:31:34.585Z,88.23
2019-01-05T09:35:43.433Z,87.80
2019-01-05T09:39:45.941Z,87.94
2019-01-05T09:43:44.717Z,87.06
2019-01-05T09:47:49.731Z,85.74
2019-01-05T09:51:46.707Z,85.08
2019-01-05T09:56:05.871Z,84.45
2019-01-05T09:59:58.981Z,84.44
2019-01-05T10:03:50.619Z,85.08
2019-01-05T10:08:04.868Z,84.36
2019-01-05T10:12:25.809Z,83.94
2019-01-05T10:16:35.350Z,84.34
2019-01-05T10:20:20.390Z,84.79
2019-01-05T10:24:23.269Z,85.27
2019-01-05T10:28:28.353Z,85.34
2019-01-05T10:32:32.142Z,85.67
2019-01-05T10:36:25.513Z,85.12
2019-01-05T10:40:33.303Z,84.36
2019-01-05T10:44:10.638Z,83.86
2019-01-05T10:47:50.478Z,83.07
2019-01-05T10:51:54.530Z,81.57
2019-01-05T10:55:28.805Z,80.35
2019-01-05T10:59:19.623Z,80.04
2019-01-05T11:03:02.091Z,79.99
2019-01-05T11:07:13.412Z,79.89
2019-01-05T11:11:17.248Z,79.54
2019-01-05T11:15:07.039Z,79.32
2019-01-05T11:18:56.441Z,79.51
2019-01-05T11:23:08.649Z,78.71
2019-01-05T11:26:55.788Z,79.58
2019-01-05T11:31:01.762Z,79.82
2019-01-05T11:35:00.835Z,78.91
2019-01-05T11:39:20.769Z,78.05
2019-01-05T11:43:15.461Z,77.32
2019-01-05T11:46:56.051Z,76.25
2019-01-05T11:51:04.769Z,77.32
2019-01-05T11:55:01.159Z,76.31
2019-01-05T11:58:43.275Z,76.85
2019-01-05T12:02:48.482Z,76.37
2019-01-05T12:06:44.449Z,76.47
2019-01-05T12:10:38.682Z,76.66
2019-01-05T12:14:33.548Z,76.22
2019-01-05T12:18:46.171Z,75.53
2019-01-05T12:22:42.710Z,74.51
2019-01-05T12:27:07.679Z,75.41
2019-01-05T12:31:15.772Z,75.52
2019-01-05T12:35:24.828Z,76.53
2019-01-05T12:39:52.669Z,77.46
2019-01-05T12:44:12.552Z,77.41
2019-01-05T12:48:13.537Z,78.20
2019-01-05T12:52:16.697Z,81.08
2019-01-05T12:56:33.138Z,82.38
2019-01-05T13:00:44.233Z,83.21
2019-01-05T13:04:21.523Z,84.14
2019-01-05T13:08:22.873Z,84.44
2019-01-05T13:12:34.817Z,84.72
2019-01-05T13:16:21.611Z,84.04
2019-01-05T13:20:19.661Z,83.89
2019-01-05T13:24:00.024Z,83.25
2019-01-05T13:28:13.632Z,82.59
2019-01-05T13:32:23.660Z,81.20
2019-01-05T13:36:21.303Z,80.01
2019-01-05T13:40:22.144Z,79.67
2019-01-05T13:43:56.485Z,80.53
2019-01-05T13:48:22.270Z,81.06
2019-01-05T13:51:53.572Z,81.53
2019-01-05T13:55:02.797Z,81.45
2019-01-05T13:58:10.227Z,81.38
2019-01-05T14:01:17.894Z,81.19
2019-01-05T14:04:13.531Z,80.85
2019-01-05T14:07:15.022Z,80.89
2019-01-05T14:10:09.999Z,80.53
2019-01-05T14:13:01.850Z,80.06
2019-01-05T14:15:52.705Z,80.36
2019-01-05T14:18:51.824Z,80.40
2019-01-05T14:21:42.908Z,80.34
2019-01-05T14:24:35.536Z,79.75
2019-01-05T14:27:37.228Z,79.59
2019-01-05T14:30:43.071Z,79.53
2019-01-05T14:33:47.235Z,80.02
2019-01-05T14:36:45.171Z,80.04
2019-01-05T14:39:45.135Z,80.54
2019-01-05T14:42:36.437Z,80.72
2019-01-05T14:45:27.305Z,81.18
2019-01-05T14:48:18.267Z,81.06
2019-01-05T14:51:10.500Z,81.10
2019-01-05T14:54:00.850Z,81.29
2019-01-05T14:56:51.848Z,81.19
2019-01-05T14:59:43.305Z,81.48
2019-01-05T15:02:37.045Z,81.31
2019-01-05T15:05:41.522Z,81.79
2019-01-05T15:08:41.137Z,81.72
2019-01-05T15:11:32.813Z,81.73
2019-01-05T15:14:25.986Z,81.82
2019-01-05T15:17:32.445Z,82.06
2019-01-05T15:20:31.043Z,82.42
2019-01-05T15:23:20.183Z,81.89
2019-01-05T15:26:11.579Z,81.84
2019-01-05T15:29:05.606Z,81.54
2019-01-05T15:32:07.507Z,81.42
2019-01-05T15:34:59.004Z,81.51
2019-01-05T15:37:50.345Z,81.34
2019-01-05T15:41:01.631Z,81.63
2019-01-05T15:43:54.691Z,82.36
2019-01-05T15:46:46.414Z,83.21
2019-01-05T15:49:39.328Z,83.90
2019-01-05T15:52:34.955Z,84.49
2019-01-05T15:55:41.683Z,85.43
2019-01-05T15:58:37.245Z,86.07
2019-01-05T16:01:28.602Z,86.85
2019-01-05T16:04:19.876Z,87.31
2019-01-05T16:07:27.816Z,87.51
2019-01-05T16:10:36.250Z,87.54
2019-01-05T16:13:28.470Z,87.60
2019-01-05T16:16:30.035Z,87.42
2019-01-05T16:19:25.436Z,87.76
2019-01-05T16:22:16.863Z,87.85
2019-01-05T16:25:09.711Z,87.78
2019-01-05T16:28:02.722Z,87.43
2019-01-05T16:30:54.669Z,86.60
2019-01-05T16:33:56.869Z,86.50
2019-01-05T16:36:49.110Z,86.59
2019-01-05T16:39:50.917Z,86.20
2019-01-05T16:42:47.711Z,86.58
2019-01-05T16:45:40.672Z,86.78
2019-01-05T16:48:32.916Z,87.28
2019-01-05T16:51:31.973Z,87.63
2019-01-05T16:54:28.054Z,87.62
2019-01-05T16:57:28.023Z,88.01
2019-01-05T17:00:20.098Z,87.28
2019-01-05T17:03:22.542Z,87.11
2019-01-05T17:06:15.724Z,87.09
2019-01-05T17:09:01.894Z,86.89
2019-01-05T17:12:07.066Z,87.11
2019-01-05T17:15:09.541Z,87.36
2019-01-05T17:18:02.821Z,87.31
2019-01-05T17:21:04.673Z,87.38
2019-01-05T17:24:00.894Z,87.25
2019-01-05T17:26:54.332Z,86.53
2019-01-05T17:29:41.991Z,85.91
2019-01-05T17:32:35.369Z,85.98
2019-01-05T17:35:36.633Z,86.08
2019-01-05T17:38:48.591Z,86.11
2019-01-05T17:41:53.653Z,86.02
2019-01-05T17:44:55.724Z,86.28
2019-01-05T17:47:48.984Z,86.37
2019-01-05T17:50:41.225Z,86.46
2019-01-05T17:53:40.495Z,86.01
2019-01-05T17:56:51.271Z,84.78
2019-01-05T18:00:02.499Z,84.93
2019-01-05T18:02:57.093Z,83.93
2019-01-05T18:05:51.253Z,84.06
2019-01-05T18:08:50.956Z,83.29
2019-01-05T18:11:44.197Z,83.37
2019-01-05T18:14:49.315Z,83.48
2019-01-05T18:17:42.482Z,83.31
2019-01-05T18:20:35.468Z,83.30
2019-01-05T18:23:47.080Z,83.44
2019-01-05T18:26:51.724Z,83.42
2019-01-05T18:29:51.851Z,83.41
2019-01-05T18:32:59.667Z,82.97
2019-01-05T18:35:56.289Z,83.22
2019-01-05T18:38:44.057Z,82.35
2019-01-05T18:41:52.722Z,82.24
2019-01-05T18:44:55.229Z,82.14
2019-01-05T18:47:51.490Z,82.26
2019-01-05T18:50:48.048Z,82.61
2019-01-05T18:53:44.023Z,82.70
2019-01-05T18:56:35.563Z,82.64
2019-01-05T18:59:32.295Z,82.80
2019-01-05T19:02:25.802Z,82.67
2019-01-05T19:05:38.102Z,82.56
2019-01-05T19:08:44.989Z,82.19
2019-01-05T19:11:35.390Z,81.88
2019-01-05T19:14:27.264Z,81.68
2019-01-05T19:17:24.566Z,81.74
2019-01-05T19:20:36.160Z,81.34
2019-01-05T19:23:40.886Z,82.08
2019-01-05T19:26:32.363Z,82.37
2019-01-05T19:29:43.901Z,82.31
2019-01-05T19:32:52.031Z,82.51
2019-01-05T19:35:43.682Z,82.99
2019-01-05T19:38:35.371Z,84.40
2019-01-05T19:41:47.184Z,83.86
2019-01-05T19:44:46.702Z,83.45
2019-01-05T19:47:39.519Z,85.56
2019-01-05T19:50:27.017Z,83.62
2019-01-05T19:53:18.510Z,82.56
2019-01-05T19:56:11.450Z,82.84
2019-01-05T19:59:17.374Z,83.16
2019-01-05T20:01:57.170Z,83.71
2019-01-05T20:04:48.503Z,84.12
2019-01-05T20:07:41.379Z,84.53
2019-01-05T20:10:34.509Z,84.52
2019-01-05T20:13:46.604Z,84.70
2019-01-05T20:16:45.853Z,85.22
2019-01-05T20:19:52.100Z,85.56
2019-01-05T20:22:51.970Z,85.78
2019-01-05T20:25:43.248Z,85.56
2019-01-05T20:28:35.894Z,85.65
2019-01-05T20:31:38.298Z,85.17
2019-01-05T20:34:31.602Z,84.48
2019-01-05T20:37:24.909Z,83.98
2019-01-05T20:40:23.803Z,83.60
2019-01-05T20:43:16.714Z,83.97
2019-01-05T20:46:21.754Z,84.19
2019-01-05T20:49:28.492Z,84.51
2019-01-05T20:52:30.918Z,84.66
2019-01-05T20:55:24.010Z,84.80
2019-01-05T20:58:20.349Z,85.14
2019-01-05T21:01:12.010Z,85.27
2019-01-05T21:04:05.710Z,85.58
2019-01-05T21:07:07.551Z,85.72
2019-01-05T21:09:56.430Z,85.87
2019-01-05T21:12:49.871Z,85.79
2019-01-05T21:15:48.971Z,85.67
2019-01-05T21:18:44.783Z,85.18
2019-01-05T21:21:49.573Z,85.29
2019-01-05T21:24:45.948Z,85.39
2019-01-05T21:27:44.864Z,85.67
2019-01-05T21:30:44.213Z,85.96
2019-01-05T21:33:49.303Z,86.01
2019-01-05T21:36:36.743Z,86.23
2019-01-05T21:39:33.052Z,86.27
2019-01-05T21:42:25.991Z,86.45
2019-01-05T21:45:17.651Z,86.58
2019-01-05T21:48:07.630Z,86.80
2019-01-05T21:50:58.863Z,87.13
2019-01-05T21:53:51.379Z,87.35
2019-01-05T21:56:45.774Z,87.40
2019-01-05T21:59:37.469Z,87.50
2019-01-05T22:02:32.990Z,87.59
2019-01-05T22:05:24.923Z,87.65
2019-01-05T22:08:30.418Z,87.58
2019-01-05T22:11:22.071Z,87.42
2019-01-05T22:14:13.351Z,87.47
2019-01-05T22:17:04.563Z,87.39
2019-01-05T22:20:13.050Z,87.60
2019-01-05T22:23:04.653Z,88.11
2019-01-05T22:25:56.609Z,88.21
2019-01-05T22:28:54.811Z,88.74
2019-01-05T22:31:53.610Z,88.63
2019-01-05T22:35:04.950Z,88.90
2019-01-05T22:37:58.407Z,88.84
2019-01-05T22:40:54.143Z,88.83
2019-01-05T22:43:45.251Z,88.75
2019-01-05T22:46:37.623Z,88.58
2019-01-05T22:49:36.683Z,88.78
2019-01-05T22:52:28.103Z,89.10
2019-01-05T22:55:32.672Z,89.34
2019-01-05T22:58:24.032Z,89.34
2019-01-05T23:01:29.743Z,89.52
2019-01-05T23:04:38.757Z,89.24
2019-01-05T23:07:43.163Z,89.27
2019-01-05T23:10:35.394Z,89.30
2019-01-05T23:13:37.398Z,89.02
2019-01-05T23:16:25.584Z,88.88
2019-01-05T23:19:16.471Z,88.89
2019-01-05T23:22:23.192Z,88.18
2019-01-05T23:25:14.560Z,88.72
2019-01-05T23:28:08.820Z,89.38
2019-01-05T23:31:07.512Z,89.55
2019-01-05T23:33:59.655Z,88.70
2019-01-05T23:36:57.529Z,87.97
2019-01-05T23:39:50.070Z,87.66
2019-01-05T23:42:45.390Z,88.19
2019-01-05T23:45:44.967Z,88.27
2019-01-05T23:48:35.880Z,87.29
2019-01-05T23:51:26.967Z,86.99
2019-01-05T23:54:20.167Z,87.12
2019-01-05T23:57:11.987Z,86.90
